Haverhill, Massachusetts
Traffic Map
Current Weather Conditions
Haverhill, Massachusetts
Clear
Clear
25°
Feels Like: 16°
Wind Chill: 16° Ceiling: Unl
Heat Index: 25° Visibility: 10mi
Dew Point: Wind: 8mph
Humidity: 39% Direction: 280° (W)
Pressure: 29.83in Gusts: 0mph
Raw Report DataKLWM 142254Z 28007KT 10SM CLR M04/M16 A2983 RMK AO2 SLP103 T10391161
Traffic Incident Summary
Active as of:
Severity:
Category:
InformationThere was an issue retrieving the traffic information for this location. Please try a different location or try again shortly.
Advertisements